Time;durP1;ratioP1;P1;durP2;ratioP2;P2;SDS_P1;SDS_P2;PMS_P1;PMS_P2;Temp;Humidity;BMP_temperature;BMP_pressure;BME280_temperature;BME280_humidity;BME280_pressure;Samples;Min_cycle;Max_cycle;Signal;HPM_P1;HPM_P2
2023/06/23 00:00:28;;;;;;;;;;;;;;;24.21;62.34;100782.69;4980982;28;4224;-62
2023/06/23 00:02:54;;;;;;;;;;;;;;;24.15;62.61;100788.31;4983656;28;4325;-62
2023/06/23 00:05:21;;;;;;;;;;;;;;;24.16;62.48;100792.69;4986751;28;4207;-62
2023/06/23 00:07:47;;;;;;;;;;;;;;;24.17;62.43;100814.44;4985763;28;4165;-62
2023/06/23 00:10:14;;;;;;;;;;;;;;;24.14;62.58;100804.91;4980796;28;4119;-62
2023/06/23 00:12:43;;;;;;;;;;;;;;;24.18;62.61;100802.16;4982017;28;4229;-62
2023/06/23 00:15:13;;;;;;;;;;;;;;;24.17;62.40;100797.06;4978765;28;4224;-62
2023/06/23 00:17:40;;;;;;;;;;;;;;;24.13;62.50;100789.00;4982617;28;4071;-62
2023/06/23 00:20:10;;;;;;;;;;;;;;;24.12;62.58;100783.88;4982900;28;4812;-62
2023/06/23 00:22:36;;;;;;;;;;;;;;;24.11;62.53;100788.94;4981099;28;4085;-62
2023/06/23 00:25:03;;;;;;;;;;;;;;;24.13;62.25;100789.00;4983767;28;4056;-62
2023/06/23 00:27:29;;;;;;;;;;;;;;;24.13;62.41;100812.13;4979107;28;4095;-62
2023/06/23 00:29:56;;;;;;;;;;;;;;;24.14;62.52;100828.06;4983213;28;4173;-62
2023/06/23 00:32:22;;;;;;;;;;;;;;;24.18;62.43;100868.69;5000632;28;4252;-62
2023/06/23 00:34:48;;;;;;;;;;;;;;;24.27;62.19;100923.94;4987500;28;4164;-63
2023/06/23 00:37:15;;;;;;;;;;;;;;;24.34;61.91;100986.38;4983394;28;4153;-62
2023/06/23 00:39:42;;;;;;;;;;;;;;;24.32;62.16;100995.00;5000811;28;4198;-62
2023/06/23 00:42:08;;;;;;;;;;;;;;;24.20;62.21;100975.81;4986774;28;4138;-62
2023/06/23 00:44:35;;;;;;;;;;;;;;;24.24;62.45;100911.56;4983921;28;4232;-62
2023/06/23 00:47:01;;;;;;;;;;;;;;;24.23;62.56;100841.38;4992980;28;4145;-62
2023/06/23 00:49:28;;;;;;;;;;;;;;;24.14;62.92;100786.81;4985602;28;4440;-62
2023/06/23 00:51:54;;;;;;;;;;;;;;;24.06;63.28;100758.41;4981826;28;4235;-62
2023/06/23 00:54:23;;;;;;;;;;;;;;;24.03;63.27;100771.34;4983027;28;4267;-71
2023/06/23 00:56:50;;;;;;;;;;;;;;;24.01;63.59;100792.25;4982706;28;4114;-72
2023/06/23 00:59:16;;;;;;;;;;;;;;;24.08;63.50;100807.66;4998162;28;4785;-72
2023/06/23 01:01:42;;;;;;;;;;;;;;;24.08;63.34;100816.31;4985108;28;4025;-72
2023/06/23 01:04:09;;;;;;;;;;;;;;;24.08;63.34;100825.00;4986314;28;4153;-71
2023/06/23 01:06:54;;;;;;;;;;;;;;;24.12;63.07;100813.56;4984362;28;4191;-71
2023/06/23 01:09:36;;;;;;;;;;;;;;;24.09;62.99;100806.22;4984895;28;3915;-72
2023/06/23 01:12:17;;;;;;;;;;;;;;;24.07;63.24;100788.81;4979191;28;4266;-72
2023/06/23 01:14:52;;;;;;;;;;;;;;;24.01;63.27;100774.91;4986309;28;4139;-72
2023/06/23 01:17:26;;;;;;;;;;;;;;;23.99;63.48;100774.84;5000965;28;4139;-72
2023/06/23 01:20:16;;;;;;;;;;;;;;;23.99;63.55;100768.31;4986116;28;4370;-72
2023/06/23 01:22:44;;;;;;;;;;;;;;;24.00;63.70;100772.69;4987141;28;4040;-72
2023/06/23 01:25:19;;;;;;;;;;;;;;;23.99;63.68;100765.44;4985146;28;4487;-72
2023/06/23 01:28:04;;;;;;;;;;;;;;;23.96;63.65;100758.84;5000842;28;4377;-72
2023/06/23 01:30:31;;;;;;;;;;;;;;;23.95;63.67;100753.75;4978086;28;5754;-72
2023/06/23 01:33:07;;;;;;;;;;;;;;;23.95;63.64;100754.47;4983166;28;4290;-71
2023/06/23 01:35:37;;;;;;;;;;;;;;;23.93;63.61;100750.78;5002202;28;4066;-72
2023/06/23 01:38:18;;;;;;;;;;;;;;;23.95;63.41;100753.75;4968651;28;4592;-72
2023/06/23 01:40:44;;;;;;;;;;;;;;;23.95;63.52;100742.91;4991810;28;4220;-72
2023/06/23 01:43:10;;;;;;;;;;;;;;;23.93;63.44;100739.22;4997868;28;4071;-72
2023/06/23 01:45:39;;;;;;;;;;;;;;;23.92;63.67;100738.47;4999104;28;4199;-72
2023/06/23 01:48:06;;;;;;;;;;;;;;;23.93;63.61;100733.44;4967259;28;4140;-72
2023/06/23 01:50:33;;;;;;;;;;;;;;;23.93;63.61;100733.44;4966533;28;4316;-72
2023/06/23 01:53:00;;;;;;;;;;;;;;;23.93;63.58;100736.31;4985592;28;4160;-71
2023/06/23 01:55:26;;;;;;;;;;;;;;;23.90;63.55;100734.78;4990911;28;4407;-72
2023/06/23 01:57:53;;;;;;;;;;;;;;;23.94;63.45;100740.72;4998516;28;4090;-72
2023/06/23 02:00:21;;;;;;;;;;;;;;;23.92;63.52;100752.22;4998753;28;4040;-72
2023/06/23 02:02:49;;;;;;;;;;;;;;;23.92;63.46;100761.63;4985434;28;4043;-72
2023/06/23 02:05:16;;;;;;;;;;;;;;;23.93;63.66;100768.13;4998118;28;4068;-72
2023/06/23 02:07:43;;;;;;;;;;;;;;;23.91;63.75;100768.06;4995531;28;4201;-72
2023/06/23 02:10:09;;;;;;;;;;;;;;;23.91;63.56;100765.91;4986821;28;4243;-72
2023/06/23 02:12:38;;;;;;;;;;;;;;;23.93;63.42;100765.25;4998855;28;4062;-72
2023/06/23 02:15:04;;;;;;;;;;;;;;;23.92;63.83;100752.94;4981412;28;4257;-72
2023/06/23 02:17:31;;;;;;;;;;;;;;;23.89;63.71;100731.16;4985692;28;4187;-72
2023/06/23 02:19:57;;;;;;;;;;;;;;;23.90;63.71;100723.22;4984373;28;4186;-72
2023/06/23 02:22:24;;;;;;;;;;;;;;;23.88;63.89;100709.44;4998526;28;4223;-71
2023/06/23 02:24:51;;;;;;;;;;;;;;;23.88;63.96;100694.25;4981687;28;4230;-72
2023/06/23 02:27:17;;;;;;;;;;;;;;;23.87;64.08;100689.88;4979559;28;4120;-72
2023/06/23 02:29:43;;;;;;;;;;;;;;;23.86;63.77;100673.94;4982702;28;4241;-72
2023/06/23 02:32:10;;;;;;;;;;;;;;;23.83;64.08;100684.72;4989208;28;4007;-72
2023/06/23 02:34:37;;;;;;;;;;;;;;;23.79;64.26;100673.03;4984356;28;4102;-72
2023/06/23 02:37:04;;;;;;;;;;;;;;;23.79;64.36;100673.75;4983807;28;4009;-72
2023/06/23 02:39:31;;;;;;;;;;;;;;;23.78;64.54;100660.72;4981703;28;4092;-72
2023/06/23 02:41:57;;;;;;;;;;;;;;;23.78;64.38;100672.28;4986074;28;4293;-72
2023/06/23 02:44:32;;;;;;;;;;;;;;;23.79;64.51;100670.88;4988734;28;4179;-72
2023/06/23 02:46:58;;;;;;;;;;;;;;;23.80;64.47;100668.72;4995397;28;4072;-72
2023/06/23 02:49:27;;;;;;;;;;;;;;;23.78;64.25;100662.88;4984354;28;4032;-72
2023/06/23 02:51:55;;;;;;;;;;;;;;;23.75;64.21;100659.19;4998599;28;4120;-72
2023/06/23 02:54:21;;;;;;;;;;;;;;;23.76;64.49;100660.66;4980680;28;4139;-72
2023/06/23 02:56:48;;;;;;;;;;;;;;;23.75;64.40;100662.06;4981790;28;4120;-72
2023/06/23 02:59:16;;;;;;;;;;;;;;;23.76;64.62;100666.44;4998464;28;4310;-72
2023/06/23 03:01:45;;;;;;;;;;;;;;;23.75;64.42;100662.06;4998030;28;4046;-72
2023/06/23 03:04:11;;;;;;;;;;;;;;;23.77;64.61;100673.69;4981482;28;4057;-72
2023/06/23 03:06:38;;;;;;;;;;;;;;;23.78;64.31;100677.34;4979037;28;4018;-72
2023/06/23 03:09:06;;;;;;;;;;;;;;;23.76;64.57;100680.91;4984383;28;4602;-72
2023/06/23 03:11:33;;;;;;;;;;;;;;;23.72;64.76;100689.44;4999799;28;4275;-72
2023/06/23 03:13:59;;;;;;;;;;;;;;;23.75;64.77;100704.72;4982658;28;5132;-71
2023/06/23 03:16:43;;;;;;;;;;;;;;;23.74;64.44;100703.22;4981590;28;4245;-72
2023/06/23 03:19:18;;;;;;;;;;;;;;;23.70;64.62;100712.50;4990840;28;4293;-72
2023/06/23 03:21:45;;;;;;;;;;;;;;;23.72;64.80;100721.22;4996345;28;4096;-72
2023/06/23 03:24:12;;;;;;;;;;;;;;;23.71;64.60;100731.31;4981474;28;4064;-72
2023/06/23 03:26:39;;;;;;;;;;;;;;;23.72;64.74;100749.41;4982595;28;4186;-72
2023/06/23 03:29:06;;;;;;;;;;;;;;;23.73;64.89;100757.41;4981118;28;5333;-73
2023/06/23 03:31:33;;;;;;;;;;;;;;;23.73;64.68;100757.41;4996838;28;4051;-72
2023/06/23 03:33:59;;;;;;;;;;;;;;;23.72;64.53;100761.69;4983443;28;4130;-72
2023/06/23 03:36:26;;;;;;;;;;;;;;;23.72;64.77;100761.69;4975425;28;4219;-72
2023/06/23 03:38:59;;;;;;;;;;;;;;;23.72;64.82;100761.69;4983374;28;4147;-73
2023/06/23 03:41:29;;;;;;;;;;;;;;;23.72;64.80;100773.25;4996457;28;3971;-72
2023/06/23 03:43:59;;;;;;;;;;;;;;;23.72;64.74;100776.16;4981953;28;4150;-72
2023/06/23 03:46:26;;;;;;;;;;;;;;;23.72;64.79;100784.09;4980138;28;4227;-72
2023/06/23 03:48:54;;;;;;;;;;;;;;;23.70;64.86;100787.66;4998552;28;4026;-72
2023/06/23 03:51:20;;;;;;;;;;;;;;;23.70;64.96;100793.44;4995067;28;3973;-72
2023/06/23 03:53:47;;;;;;;;;;;;;;;23.71;64.78;100794.16;4997505;28;4357;-71
2023/06/23 03:56:13;;;;;;;;;;;;;;;23.70;64.96;100790.53;4994262;28;4108;-72
2023/06/23 03:58:39;;;;;;;;;;;;;;;23.70;65.12;100805.00;4980417;28;4196;-71
2023/06/23 04:01:06;;;;;;;;;;;;;;;23.69;65.19;100815.09;4981205;28;4166;-72
2023/06/23 04:03:32;;;;;;;;;;;;;;;23.69;65.13;100815.09;4985468;28;4233;-72
2023/06/23 04:05:59;;;;;;;;;;;;;;;23.69;65.04;100820.88;4983617;28;4412;-72
2023/06/23 04:08:26;;;;;;;;;;;;;;;23.68;65.32;100830.22;4986712;28;4180;-72
2023/06/23 04:10:52;;;;;;;;;;;;;;;23.69;65.32;100832.44;5002198;28;4221;-72
2023/06/23 04:13:19;;;;;;;;;;;;;;;23.68;65.36;100836.72;4987910;28;4211;-72
2023/06/23 04:15:46;;;;;;;;;;;;;;;23.68;65.45;100833.09;4998092;28;4197;-72
2023/06/23 04:18:12;;;;;;;;;;;;;;;23.66;65.29;100833.78;4995641;28;4492;-72
2023/06/23 04:20:38;;;;;;;;;;;;;;;23.67;65.32;100843.94;5000301;28;4099;-72
2023/06/23 04:23:05;;;;;;;;;;;;;;;23.67;65.40;100834.53;4990803;28;4111;-72
2023/06/23 04:25:32;;;;;;;;;;;;;;;23.66;65.42;100833.78;4986193;28;4005;-72
2023/06/23 04:27:59;;;;;;;;;;;;;;;23.61;65.54;100829.28;4983179;28;4033;-72
2023/06/23 04:30:26;;;;;;;;;;;;;;;23.57;65.59;100832.78;4982309;28;4127;-72
2023/06/23 04:32:53;;;;;;;;;;;;;;;23.58;65.49;100839.31;4986344;28;4171;-73
2023/06/23 04:35:19;;;;;;;;;;;;;;;23.55;65.60;100840.66;4986617;28;4098;-72
2023/06/23 04:37:45;;;;;;;;;;;;;;;23.58;65.66;100834.25;4985415;28;4130;-72
2023/06/23 04:40:12;;;;;;;;;;;;;;;23.55;65.38;100832.00;4989403;28;4315;-72
2023/06/23 04:42:42;;;;;;;;;;;;;;;23.54;65.40;100827.59;4989563;28;4204;-72
2023/06/23 04:45:09;;;;;;;;;;;;;;;23.54;65.39;100827.59;5005717;28;4133;-72
2023/06/23 04:47:35;;;;;;;;;;;;;;;23.55;65.45;100837.78;5000415;28;4022;-72
2023/06/23 04:50:03;;;;;;;;;;;;;;;23.54;65.45;100833.38;4984150;28;4036;-71
2023/06/23 04:52:30;;;;;;;;;;;;;;;23.53;65.57;100840.59;4997898;28;4092;-72
2023/06/23 04:54:58;;;;;;;;;;;;;;;23.53;65.30;100837.69;5000306;28;4123;-71
2023/06/23 04:57:27;;;;;;;;;;;;;;;23.51;65.44;100840.53;4983756;28;4026;-72
2023/06/23 04:59:53;;;;;;;;;;;;;;;23.54;65.49;100850.72;4987859;28;4251;-71
2023/06/23 05:02:20;;;;;;;;;;;;;;;23.52;65.77;100848.50;4987511;28;4321;-72
2023/06/23 05:04:47;;;;;;;;;;;;;;;23.52;65.69;100850.66;4981043;28;4375;-72
2023/06/23 05:07:14;;;;;;;;;;;;;;;23.51;65.84;100854.97;4980617;28;4024;-72
2023/06/23 05:09:41;;;;;;;;;;;;;;;23.28;66.69;100842.66;4999158;28;4198;-82
2023/06/23 05:12:08;;;;;;;;;;;;;;;22.92;68.09;100830.53;4981938;28;4147;-73
2023/06/23 05:14:35;;;;;;;;;;;;;;;22.56;70.02;100831.47;4989803;28;4577;-73
2023/06/23 05:17:01;;;;;;;;;;;;;;;22.58;69.81;100828.63;5003241;28;4280;-71
2023/06/23 05:19:29;;;;;;;;;;;;;;;22.51;70.49;100838.47;5007845;28;4131;-72
2023/06/23 05:21:55;;;;;;;;;;;;;;;22.40;70.94;100848.16;4979536;28;4485;-73
2023/06/23 05:24:22;;;;;;;;;;;;;;;22.56;70.40;100854.53;4986236;28;4254;-73
2023/06/23 05:26:48;;;;;;;;;;;;;;;22.37;71.15;100861.03;4987380;28;4318;-72
2023/06/23 05:29:15;;;;;;;;;;;;;;;22.34;71.19;100862.34;4990695;28;4139;-75
2023/06/23 05:31:41;;;;;;;;;;;;;;;22.44;71.17;100865.63;4978432;28;4246;-74
2023/06/23 05:34:08;;;;;;;;;;;;;;;22.43;71.25;100872.06;4998106;28;4180;-75
2023/06/23 05:36:34;;;;;;;;;;;;;;;22.23;71.65;100869.88;5001434;28;3978;-75
2023/06/23 05:39:01;;;;;;;;;;;;;;;22.32;71.35;100868.03;4983400;28;4298;-74
2023/06/23 05:41:27;;;;;;;;;;;;;;;22.29;71.21;100878.03;4986046;28;4027;-75
2023/06/23 05:43:54;;;;;;;;;;;;;;;22.36;71.36;100876.84;4987926;28;4360;-75
2023/06/23 05:46:20;;;;;;;;;;;;;;;22.00;72.83;100871.09;4986942;28;4213;-75
2023/06/23 05:48:51;;;;;;;;;;;;;;;22.06;72.22;100870.59;4987193;28;4643;-75
2023/06/23 05:51:19;;;;;;;;;;;;;;;22.05;72.37;100866.97;4985956;28;4244;-75
2023/06/23 05:53:46;;;;;;;;;;;;;;;22.18;71.81;100856.66;4987182;28;4058;-75
2023/06/23 05:56:17;;;;;;;;;;;;;;;21.87;73.27;100851.84;4981995;28;4012;-75
2023/06/23 05:58:44;;;;;;;;;;;;;;;21.94;73.65;100844.91;4980326;28;4285;-73
2023/06/23 06:01:13;;;;;;;;;;;;;;;22.63;72.31;100841.09;4980059;28;4116;-72
2023/06/23 06:03:40;;;;;;;;;;;;;;;22.79;70.52;100849.56;4999427;28;4032;-72
2023/06/23 06:06:07;;;;;;;;;;;;;;;22.84;69.92;100848.31;4985657;28;4123;-72
2023/06/23 06:08:34;;;;;;;;;;;;;;;22.86;69.92;100851.28;4985228;28;4297;-76
2023/06/23 06:11:00;;;;;;;;;;;;;;;22.92;69.75;100844.97;4983884;28;4225;-74
2023/06/23 06:13:27;;;;;;;;;;;;;;;22.84;69.77;100854.09;4987035;28;4028;-73
2023/06/23 06:15:54;;;;;;;;;;;;;;;22.80;70.36;100862.63;4984971;28;4179;-73
2023/06/23 06:18:20;;;;;;;;;;;;;;;22.70;70.31;100868.00;4986930;28;4296;-73
2023/06/23 06:20:46;;;;;;;;;;;;;;;22.82;69.99;100856.91;4985192;28;4447;-73
2023/06/23 06:23:13;;;;;;;;;;;;;;;22.54;70.97;100866.00;4986610;28;4245;-74
2023/06/23 06:25:51;;;;;;;;;;;;;;;22.54;70.90;100868.91;4999886;28;4642;-74
2023/06/23 06:28:17;;;;;;;;;;;;;;;22.40;71.55;100859.69;4983781;28;4101;-76
2023/06/23 06:30:44;;;;;;;;;;;;;;;22.68;70.91;100876.59;5003951;28;4061;-76
2023/06/23 06:33:12;;;;;;;;;;;;;;;22.69;71.11;100870.16;4995307;28;4431;-78
2023/06/23 06:35:38;;;;;;;;;;;;;;;22.80;70.87;100877.03;4994071;28;4174;-77
2023/06/23 06:38:04;;;;;;;;;;;;;;;22.53;71.07;100870.28;5005760;28;4064;-75
2023/06/23 06:40:31;;;;;;;;;;;;;;;22.25;72.90;100874.97;4995669;28;4033;-74
2023/06/23 06:42:57;;;;;;;;;;;;;;;22.31;72.50;100875.97;4989509;28;4070;-77
2023/06/23 06:45:24;;;;;;;;;;;;;;;22.52;71.95;100876.75;4991916;28;4145;-77
2023/06/23 06:47:50;;;;;;;;;;;;;;;22.56;71.93;100871.09;4997478;28;4034;-76
2023/06/23 06:50:17;;;;;;;;;;;;;;;22.50;71.58;100868.72;4998102;28;4153;-76
2023/06/23 06:52:43;;;;;;;;;;;;;;;22.50;71.87;100871.63;4989444;28;4589;-74
2023/06/23 06:55:15;;;;;;;;;;;;;;;22.41;72.33;100878.50;4984497;28;4327;-70
2023/06/23 06:57:41;;;;;;;;;;;;;;;22.29;72.84;100878.03;5001527;28;4149;-70
2023/06/23 07:00:09;;;;;;;;;;;;;;;22.24;72.58;100879.25;4986551;28;4112;-71
2023/06/23 07:02:36;;;;;;;;;;;;;;;22.10;73.03;100885.91;4991070;28;4133;-71
2023/06/23 07:05:03;;;;;;;;;;;;;;;22.08;74.10;100885.88;4987963;28;4399;-71
2023/06/23 07:07:29;;;;;;;;;;;;;;;22.05;74.16;100886.44;4991835;28;4140;-71
2023/06/23 07:09:56;;;;;;;;;;;;;;;22.24;73.50;100879.25;4990419;28;4349;-69
2023/06/23 07:12:23;;;;;;;;;;;;;;;22.54;72.12;100883.31;4990482;28;3907;-70
2023/06/23 07:14:49;;;;;;;;;;;;;;;22.43;72.78;100886.50;4985243;28;4207;-69
2023/06/23 07:17:15;;;;;;;;;;;;;;;22.42;73.29;100891.50;4989629;28;4171;-66
2023/06/23 07:19:42;;;;;;;;;;;;;;;22.54;72.23;100886.22;4986437;28;4116;-67
2023/06/23 07:22:09;;;;;;;;;;;;;;;22.40;72.75;100888.53;4991569;28;4222;-67
2023/06/23 07:24:35;;;;;;;;;;;;;;;22.49;72.56;100890.31;4992094;28;4598;-68
2023/06/23 07:27:02;;;;;;;;;;;;;;;22.41;72.75;100881.38;4989604;28;4191;-65
2023/06/23 07:29:28;;;;;;;;;;;;;;;22.38;72.59;100897.13;4990190;28;4126;-67
2023/06/23 07:31:54;;;;;;;;;;;;;;;22.28;73.08;100888.06;4995933;28;4056;-65
2023/06/23 07:34:21;;;;;;;;;;;;;;;22.26;73.02;100896.66;4989562;28;4166;-64
2023/06/23 07:36:51;;;;;;;;;;;;;;;22.24;72.91;100902.34;4987997;28;4067;-65
2023/06/23 07:39:17;;;;;;;;;;;;;;;21.98;74.47;100908.50;4988428;28;3995;-65
2023/06/23 07:41:44;;;;;;;;;;;;;;;22.23;72.97;100900.88;4993130;28;4096;-64
2023/06/23 07:44:10;;;;;;;;;;;;;;;22.00;73.56;100902.09;4991310;28;4101;-64
2023/06/23 07:46:36;;;;;;;;;;;;;;;22.16;72.83;100912.13;4992502;28;4047;-66
2023/06/23 07:49:03;;;;;;;;;;;;;;;22.32;72.27;100912.06;4988709;28;4155;-71
2023/06/23 07:51:29;;;;;;;;;;;;;;;22.66;71.17;100908.28;4987942;28;4119;-65
2023/06/23 07:53:56;;;;;;;;;;;;;;;22.81;70.27;100904.50;4990349;28;4313;-66
2023/06/23 07:56:33;;;;;;;;;;;;;;;23.02;69.77;100908.91;4988754;28;4238;-65
2023/06/23 07:58:59;;;;;;;;;;;;;;;22.98;69.68;100909.47;4983680;28;4451;-66
2023/06/23 08:01:25;;;;;;;;;;;;;;;23.03;69.60;100903.88;4987205;28;4480;-66
2023/06/23 08:03:52;;;;;;;;;;;;;;;22.95;69.74;100910.81;4989891;28;4101;-66
2023/06/23 08:06:23;;;;;;;;;;;;;;;22.95;70.28;100905.03;4997412;28;4476;-66
2023/06/23 08:08:50;;;;;;;;;;;;;;;23.09;69.79;100901.19;4984909;28;4131;-70
2023/06/23 08:11:16;;;;;;;;;;;;;;;23.23;69.78;100907.50;4992227;28;4088;-70
2023/06/23 08:13:43;;;;;;;;;;;;;;;22.58;71.91;100905.81;4983907;28;4496;-73
2023/06/23 08:16:10;;;;;;;;;;;;;;;22.63;71.71;100909.59;4988273;28;4138;-67
2023/06/23 08:18:36;;;;;;;;;;;;;;;22.87;71.14;100919.16;4986671;28;4106;-68
2023/06/23 08:21:03;;;;;;;;;;;;;;;22.71;71.59;100919.31;4986407;28;4923;-73
2023/06/23 08:23:29;;;;;;;;;;;;;;;22.46;72.25;100920.50;4984994;28;4684;-71
2023/06/23 08:26:00;;;;;;;;;;;;;;;22.38;73.35;100915.19;4979011;28;4451;-71
2023/06/23 08:28:28;;;;;;;;;;;;;;;22.25;73.68;100929.78;4976725;28;4171;-72
2023/06/23 08:30:55;;;;;;;;;;;;;;;22.17;74.16;100936.69;4979484;28;4504;-71
2023/06/23 08:33:21;;;;;;;;;;;;;;;22.28;73.84;100928.47;4984998;28;4090;-69
2023/06/23 08:35:47;;;;;;;;;;;;;;;22.23;73.86;100938.34;4984026;28;4199;-74
2023/06/23 08:38:15;;;;;;;;;;;;;;;22.22;74.09;100937.63;4979033;28;4129;-74
2023/06/23 08:40:41;;;;;;;;;;;;;;;22.17;74.17;100945.34;4986460;28;4103;-74
2023/06/23 08:43:08;;;;;;;;;;;;;;;22.30;73.84;100949.47;4982166;28;4065;-72
2023/06/23 08:45:34;;;;;;;;;;;;;;;22.65;72.34;100945.03;4981135;28;4125;-71
2023/06/23 08:48:01;;;;;;;;;;;;;;;23.00;70.59;100958.66;4998321;28;4201;-72
2023/06/23 08:50:27;;;;;;;;;;;;;;;23.20;69.73;100964.47;4982981;28;4317;-72
2023/06/23 08:52:58;;;;;;;;;;;;;;;23.33;69.07;100967.78;4981256;28;4106;-72
2023/06/23 08:55:25;;;;;;;;;;;;;;;23.72;68.41;100961.19;4979145;28;4676;-68
2023/06/23 08:57:52;;;;;;;;;;;;;;;23.93;67.80;100967.69;4970640;28;4388;-68
2023/06/23 09:00:19;;;;;;;;;;;;;;;24.09;67.20;100964.59;4985029;28;4600;-68
2023/06/23 09:02:46;;;;;;;;;;;;;;;24.07;66.57;100971.03;4982942;28;5497;-68
2023/06/23 09:05:12;;;;;;;;;;;;;;;24.12;66.44;100971.91;4984960;28;4290;-68
2023/06/23 09:07:39;;;;;;;;;;;;;;;24.17;66.10;100977.19;4983606;28;4244;-68
2023/06/23 09:10:06;;;;;;;;;;;;;;;24.35;65.82;100979.16;4981923;28;4197;-66
2023/06/23 09:12:32;;;;;;;;;;;;;;;24.25;65.62;100977.41;4997197;28;4386;-66
2023/06/23 09:14:59;;;;;;;;;;;;;;;24.17;66.04;100982.97;4976823;28;4196;-68
2023/06/23 09:17:25;;;;;;;;;;;;;;;24.14;66.63;100989.34;4982256;28;4544;-67
2023/06/23 09:19:53;;;;;;;;;;;;;;;24.19;66.46;100985.94;4983156;28;4732;-67
2023/06/23 09:22:19;;;;;;;;;;;;;;;24.20;66.46;100986.66;4985936;28;4230;-67
2023/06/23 09:24:47;;;;;;;;;;;;;;;24.39;65.73;100982.19;4975692;28;4390;-70
2023/06/23 09:27:14;;;;;;;;;;;;;;;24.39;65.75;100990.88;4985399;28;4199;-68
2023/06/23 09:29:40;;;;;;;;;;;;;;;24.52;65.47;100995.66;4981641;28;4098;-69
2023/06/23 09:32:09;;;;;;;;;;;;;;;24.58;65.14;100995.88;4979988;28;4181;-68
2023/06/23 09:34:37;;;;;;;;;;;;;;;24.44;65.08;100998.25;4986146;28;4183;-68
2023/06/23 09:37:07;;;;;;;;;;;;;;;24.28;65.48;100991.97;4984536;28;4215;-69
2023/06/23 09:39:35;;;;;;;;;;;;;;;24.23;65.67;101000.53;4984226;28;4217;-69
2023/06/23 09:42:03;;;;;;;;;;;;;;;24.24;65.65;101004.16;4979514;28;4202;-69
2023/06/23 09:44:33;;;;;;;;;;;;;;;24.21;65.79;100999.69;4982990;28;4055;-70
2023/06/23 09:47:00;;;;;;;;;;;;;;;24.21;66.02;100994.66;4982130;28;4029;-69
2023/06/23 09:49:27;;;;;;;;;;;;;;;24.33;66.23;100999.38;4980622;28;4213;-67
2023/06/23 09:51:54;;;;;;;;;;;;;;;24.39;65.62;100996.66;4969350;28;4424;-66
2023/06/23 09:54:30;;;;;;;;;;;;;;;24.37;65.79;100994.47;4971117;28;4135;-69
2023/06/23 09:57:22;;;;;;;;;;;;;;;24.43;65.50;101009.09;4981039;28;4394;-70
2023/06/23 09:59:52;;;;;;;;;;;;;;;24.27;65.78;100997.00;4980206;28;4138;-67
2023/06/23 10:02:23;;;;;;;;;;;;;;;24.15;65.98;101019.78;4980587;28;4263;-68
2023/06/23 10:04:50;;;;;;;;;;;;;;;24.09;66.32;101016.66;4978738;28;4025;-67
2023/06/23 10:07:19;;;;;;;;;;;;;;;24.09;66.04;101011.63;4982268;28;4255;-67
2023/06/23 10:09:52;;;;;;;;;;;;;;;24.07;65.81;101019.50;4980796;28;4066;-68
2023/06/23 10:12:39;;;;;;;;;;;;;;;24.05;66.13;101023.03;4978763;28;4126;-67
2023/06/23 10:15:06;;;;;;;;;;;;;;;24.03;65.83;101031.69;4978708;28;4167;-67
2023/06/23 10:17:32;;;;;;;;;;;;;;;24.03;66.12;101037.47;4980145;28;4225;-67
2023/06/23 10:19:59;;;;;;;;;;;;;;;24.03;65.96;101041.09;4978582;28;4183;-68
2023/06/23 10:22:25;;;;;;;;;;;;;;;24.03;65.69;101037.47;4980978;28;4611;-67
2023/06/23 10:24:52;;;;;;;;;;;;;;;24.04;65.53;101048.34;4995709;28;4216;-67
2023/06/23 10:27:22;;;;;;;;;;;;;;;24.03;65.67;101049.03;4973593;28;4296;-67
2023/06/23 10:29:51;;;;;;;;;;;;;;;24.03;65.54;101052.66;4978595;28;4186;-67
2023/06/23 10:32:22;;;;;;;;;;;;;;;24.01;65.51;101057.63;4976386;28;4228;-67
2023/06/23 10:34:49;;;;;;;;;;;;;;;24.01;65.48;101060.53;4978947;28;4185;-67
2023/06/23 10:37:16;;;;;;;;;;;;;;;24.01;65.54;101057.63;4981064;28;4123;-67
2023/06/23 10:39:45;;;;;;;;;;;;;;;23.97;65.68;101063.28;4978816;28;4168;-67
2023/06/23 10:42:12;;;;;;;;;;;;;;;24.00;65.56;101079.28;4981929;28;4140;-67
2023/06/23 10:44:39;;;;;;;;;;;;;;;24.01;65.48;101075.00;4981168;28;4189;-67
2023/06/23 10:47:05;;;;;;;;;;;;;;;24.01;65.48;101086.56;4994204;28;4175;-67
2023/06/23 10:49:31;;;;;;;;;;;;;;;24.00;65.47;101080.03;4979254;28;4206;-67
2023/06/23 10:51:58;;;;;;;;;;;;;;;24.00;65.33;101079.28;4981345;28;4192;-67
2023/06/23 10:54:25;;;;;;;;;;;;;;;23.98;65.41;101094.44;4974532;28;4036;-67
2023/06/23 10:56:52;;;;;;;;;;;;;;;23.98;65.48;101088.66;4979488;28;4136;-66
2023/06/23 10:59:24;;;;;;;;;;;;;;;23.95;65.34;101083.44;4980734;28;5096;-67
2023/06/23 11:02:00;;;;;;;;;;;;;;;23.94;65.55;101088.50;4980346;28;4153;-67
2023/06/23 11:04:27;;;;;;;;;;;;;;;23.92;65.41;101093.47;4979068;28;4004;-66
2023/06/23 11:07:06;;;;;;;;;;;;;;;24.10;65.12;101084.66;4977842;28;4516;-66
2023/06/23 11:09:39;;;;;;;;;;;;;;;24.14;65.24;101096.38;4974518;28;6218;-67
2023/06/23 11:12:25;;;;;;;;;;;;;;;24.24;64.84;101091.69;4979808;28;4249;-68
2023/06/23 11:14:52;;;;;;;;;;;;;;;24.39;64.85;101095.81;4975215;28;4219;-67
2023/06/23 11:17:21;;;;;;;;;;;;;;;24.24;64.63;101097.50;4973605;28;3994;-68
2023/06/23 11:19:50;;;;;;;;;;;;;;;24.38;64.38;101105.19;4975602;28;4232;-68
2023/06/23 11:22:23;;;;;;;;;;;;;;;24.49;64.17;101100.47;4977860;28;4163;-69
2023/06/23 11:24:52;;;;;;;;;;;;;;;24.46;64.29;101093.84;4982157;28;4775;-68
2023/06/23 11:27:19;;;;;;;;;;;;;;;24.51;64.42;101103.44;4974485;28;4319;-68
2023/06/23 11:30:04;;;;;;;;;;;;;;;24.30;64.59;101110.69;4976194;28;4082;-71
2023/06/23 11:32:30;;;;;;;;;;;;;;;24.20;64.76;101114.69;4970866;28;5465;-71
2023/06/23 11:34:57;;;;;;;;;;;;;;;24.55;64.54;101115.91;4986866;28;4130;-65
2023/06/23 11:37:25;;;;;;;;;;;;;;;24.69;64.08;101129.38;4979111;28;4144;-63
2023/06/23 11:39:53;;;;;;;;;;;;;;;24.74;63.56;101133.88;4984061;28;3969;-64
2023/06/23 11:42:19;;;;;;;;;;;;;;;24.77;63.58;101149.91;4982064;28;4169;-64
2023/06/23 11:44:46;;;;;;;;;;;;;;;24.79;63.42;101141.28;4982185;28;4175;-65
2023/06/23 11:47:12;;;;;;;;;;;;;;;24.78;63.20;101160.06;4977323;28;4188;-64
2023/06/23 11:49:39;;;;;;;;;;;;;;;24.70;63.38;101162.72;4980485;28;4319;-67
2023/06/23 11:52:06;;;;;;;;;;;;;;;24.65;63.77;101170.53;4975459;28;4368;-66
2023/06/23 11:54:33;;;;;;;;;;;;;;;24.70;63.50;101169.25;4985936;28;4034;-68
2023/06/23 11:57:03;;;;;;;;;;;;;;;24.65;63.86;101170.53;4985426;28;4869;-67
2023/06/23 11:59:32;;;;;;;;;;;;;;;24.53;63.76;101173.72;4986052;28;4483;-67
2023/06/23 12:02:02;;;;;;;;;;;;;;;24.54;63.88;101178.13;4985223;28;4051;-68
2023/06/23 12:04:29;;;;;;;;;;;;;;;24.60;63.78;101171.78;4987996;28;4434;-69
2023/06/23 12:06:56;;;;;;;;;;;;;;;24.50;63.88;101177.97;4986500;28;4172;-67
2023/06/23 12:09:23;;;;;;;;;;;;;;;24.78;63.85;101174.56;4983766;28;4127;-70
2023/06/23 12:11:50;;;;;;;;;;;;;;;24.91;63.44;101188.03;4979501;28;4215;-70
2023/06/23 12:14:17;;;;;;;;;;;;;;;24.84;63.65;101184.19;4996603;28;4112;-69
2023/06/23 12:16:43;;;;;;;;;;;;;;;24.83;63.63;101181.94;4981909;28;4334;-73
2023/06/23 12:19:10;;;;;;;;;;;;;;;24.95;63.44;101199.75;4984188;28;4319;-71
2023/06/23 12:21:39;;;;;;;;;;;;;;;25.13;62.53;101198.84;4985733;28;4155;-69
2023/06/23 12:24:08;;;;;;;;;;;;;;;25.00;63.05;101198.47;4988192;28;4350;-68
2023/06/23 12:26:38;;;;;;;;;;;;;;;25.00;63.16;101212.94;4991081;28;4152;-67
2023/06/23 12:29:08;;;;;;;;;;;;;;;25.09;63.01;101211.78;4990734;28;4965;-72
2023/06/23 12:31:35;;;;;;;;;;;;;;;25.12;62.75;101206.06;4988124;28;4081;-71
2023/06/23 12:34:01;;;;;;;;;;;;;;;25.13;62.80;101216.22;4988139;28;4143;-74
2023/06/23 12:36:28;;;;;;;;;;;;;;;25.17;62.51;101211.31;4991688;28;4057;-72
2023/06/23 12:38:57;;;;;;;;;;;;;;;25.14;62.42;101214.81;4988859;28;4103;-73
2023/06/23 12:41:24;;;;;;;;;;;;;;;25.09;62.55;101223.38;4987428;28;4165;-71
2023/06/23 12:43:52;;;;;;;;;;;;;;;25.08;62.54;101219.03;4991566;28;5347;-73
2023/06/23 12:46:21;;;;;;;;;;;;;;;25.04;62.55;101229.75;4988157;28;4470;-72
2023/06/23 12:48:48;;;;;;;;;;;;;;;24.95;62.98;101222.94;4982388;28;4616;-70
2023/06/23 12:51:14;;;;;;;;;;;;;;;24.95;63.00;101239.56;4991627;28;4260;-71